Aviation Digital Data Service (ADDS)

Output produced by METARs form (0025 UTC 24 May 2017)
found at http://aviationweather.gov/adds/metars/
 
KOEO 240015Z AUTO 02011G17KT 10SM SCT038 BKN048 OVC070 14/07 A2984 RMK AO2 T01440074